Time;durP1;ratioP1;P1;durP2;ratioP2;P2;SDS_P1;SDS_P2;PMS_P1;PMS_P2;Temp;Humidity;BMP_temperature;BMP_pressure;BME280_temperature;BME280_humidity;BME280_pressure;Samples;Min_cycle;Max_cycle;Signal;HPM_P1;HPM_P2
2023/09/05 00:01:40;;;;;;;3.53;2.80;;;22.50;57.20;24.10;101938.00;;;;5089973;28;20648;-79
2023/09/05 00:04:07;;;;;;;3.95;3.55;;;22.50;57.30;24.10;101948.00;;;;5089782;28;20214;-80
2023/09/05 00:06:35;;;;;;;4.28;2.63;;;22.50;57.20;24.10;101947.00;;;;5089308;28;20206;-79
2023/09/05 00:09:02;;;;;;;2.92;2.55;;;22.40;57.20;24.00;101938.00;;;;5090356;28;20787;-79
2023/09/05 00:11:29;;;;;;;4.05;3.22;;;22.40;57.20;24.00;101945.00;;;;5087514;28;20210;-80
2023/09/05 00:14:00;;;;;;;3.47;2.97;;;22.40;57.20;24.00;101944.00;;;;5088476;28;20663;-79
2023/09/05 00:16:28;;;;;;;3.15;2.85;;;22.40;57.30;24.00;101941.00;;;;5089909;28;20921;-79
2023/09/05 00:18:55;;;;;;;3.05;2.75;;;22.40;57.30;23.90;101939.00;;;;5089695;28;20191;-79
2023/09/05 00:21:22;;;;;;;4.50;3.15;;;22.30;57.30;23.90;101948.00;;;;5089371;28;20201;-79
2023/09/05 00:23:49;;;;;;;4.55;3.17;;;22.30;57.30;23.90;101945.00;;;;5089351;28;20205;-79
2023/09/05 00:26:16;;;;;;;3.47;2.72;;;22.30;57.40;23.90;101944.00;;;;5087671;28;20194;-79
2023/09/05 00:28:44;;;;;;;3.03;2.72;;;22.30;57.40;23.90;101939.00;;;;5088254;28;20931;-79
2023/09/05 00:31:14;;;;;;;3.28;2.80;;;22.20;57.50;23.80;101951.00;;;;5087595;28;20222;-79
2023/09/05 00:33:41;;;;;;;3.30;2.97;;;22.20;57.50;23.80;101945.00;;;;5085771;28;20546;-79
2023/09/05 00:36:08;;;;;;;3.88;3.30;;;22.20;57.50;23.80;101948.00;;;;5076329;28;20553;-79
2023/09/05 00:38:36;;;;;;;3.35;2.65;;;22.20;57.50;23.80;101950.00;;;;5087812;28;20195;-79
2023/09/05 00:41:05;;;;;;;4.25;3.15;;;22.20;57.60;23.80;101952.00;;;;5088601;28;20202;-79
2023/09/05 00:43:33;;;;;;;3.75;3.35;;;22.20;57.70;23.80;101947.00;;;;5088951;28;20194;-79
2023/09/05 00:46:00;;;;;;;3.58;3.08;;;22.10;57.70;23.70;101953.00;;;;5088287;28;20631;-80
2023/09/05 00:48:28;;;;;;;3.40;2.80;;;22.10;57.70;23.70;101942.00;;;;5083262;28;20202;-80
2023/09/05 00:50:57;;;;;;;3.03;2.67;;;22.10;57.80;23.70;101936.00;;;;5088144;28;20226;-79
2023/09/05 00:53:25;;;;;;;3.78;3.10;;;22.10;57.80;23.70;101939.00;;;;5088471;28;20283;-79
2023/09/05 00:55:54;;;;;;;4.35;3.53;;;22.00;57.80;23.70;101944.00;;;;5089102;28;20204;-79
2023/09/05 00:58:21;;;;;;;4.15;3.08;;;22.00;57.80;23.60;101938.00;;;;5087035;28;20591;-79
2023/09/05 01:00:48;;;;;;;4.03;3.25;;;22.00;57.80;23.60;101933.00;;;;5088510;28;20194;-79
2023/09/05 01:03:15;;;;;;;3.53;2.75;;;22.00;57.90;23.60;101933.00;;;;5088263;28;20551;-79
2023/09/05 01:05:52;;;;;;;3.00;2.72;;;22.00;57.90;23.50;101928.00;;;;5088453;28;20213;-79
2023/09/05 01:08:29;;;;;;;4.05;2.72;;;22.00;58.00;23.50;101929.00;;;;5089171;28;20189;-79
2023/09/05 01:11:08;;;;;;;5.03;3.60;;;22.00;58.10;23.50;101926.00;;;;5089650;28;20228;-80
2023/09/05 01:13:38;;;;;;;3.03;2.35;;;22.00;58.10;23.60;101927.00;;;;5089908;28;20611;-80
2023/09/05 01:16:05;;;;;;;3.55;2.88;;;22.00;58.00;23.60;101924.00;;;;5087403;28;20197;-79
2023/09/05 01:18:34;;;;;;;3.53;2.97;;;22.00;58.00;23.60;101929.00;;;;5088783;28;20190;-79
2023/09/05 01:21:21;;;;;;;4.07;3.00;;;22.00;58.00;23.50;101929.00;;;;5086115;28;20201;-79
2023/09/05 01:23:58;;;;;;;5.93;3.08;;;22.00;58.30;23.50;101926.00;;;;5076604;28;20194;-79
2023/09/05 01:26:27;;;;;;;4.05;2.80;;;22.00;58.10;23.60;101922.00;;;;5087656;28;20185;-80
2023/09/05 01:28:56;;;;;;;3.50;3.20;;;22.00;58.10;23.60;101927.00;;;;5089160;28;20209;-80
2023/09/05 01:31:25;;;;;;;4.18;3.13;;;22.00;58.10;23.60;101924.00;;;;5082748;28;20218;-79
2023/09/05 01:33:52;;;;;;;5.43;2.95;;;22.00;58.10;23.60;101919.00;;;;5087444;28;20187;-80
2023/09/05 01:36:20;;;;;;;3.78;3.35;;;22.00;58.00;23.60;101920.00;;;;5089551;28;20300;-78
2023/09/05 01:38:47;;;;;;;2.85;2.63;;;22.00;58.00;23.60;101909.00;;;;5088637;28;20603;-79
2023/09/05 01:41:14;;;;;;;3.70;3.33;;;22.00;57.90;23.60;101909.00;;;;5081948;28;20198;-80
2023/09/05 01:43:43;;;;;;;4.72;3.65;;;22.00;57.90;23.60;101902.00;;;;5087122;28;20209;-80
2023/09/05 01:46:11;;;;;;;3.40;2.80;;;22.00;57.90;23.60;101899.00;;;;5075528;28;20234;-80
2023/09/05 01:48:38;;;;;;;5.13;3.55;;;22.00;57.90;23.60;101897.00;;;;5085544;28;20198;-79
2023/09/05 01:51:05;;;;;;;3.65;3.25;;;22.00;57.80;23.60;101895.00;;;;5086173;28;20291;-80
2023/09/05 01:53:32;;;;;;;3.17;2.80;;;22.00;57.80;23.60;101885.00;;;;5084438;28;20225;-79
2023/09/05 01:55:59;;;;;;;3.35;3.00;;;22.10;57.80;23.60;101888.00;;;;5085343;28;20214;-79
2023/09/05 01:58:27;;;;;;;3.50;3.00;;;22.10;57.80;23.60;101887.00;;;;5087667;28;20205;-80
2023/09/05 02:00:56;;;;;;;4.60;3.15;;;22.10;57.70;23.60;101892.00;;;;5086821;28;20214;-80
2023/09/05 02:03:22;;;;;;;3.90;3.25;;;22.10;57.70;23.60;101885.00;;;;5087019;28;20229;-78
2023/09/05 02:05:49;;;;;;;3.08;2.72;;;22.10;57.70;23.70;101892.00;;;;5086218;28;20592;-80
2023/09/05 02:08:16;;;;;;;5.20;3.13;;;22.10;57.60;23.70;101890.00;;;;5085306;28;20652;-79
2023/09/05 02:10:46;;;;;;;3.30;3.00;;;22.10;57.60;23.60;101883.00;;;;5088099;28;20221;-79
2023/09/05 02:13:13;;;;;;;3.67;2.58;;;22.10;57.70;23.70;101892.00;;;;5086944;28;20206;-79
2023/09/05 02:15:40;;;;;;;3.33;2.78;;;22.10;57.70;23.70;101875.00;;;;5090278;28;20264;-80
2023/09/05 02:18:10;;;;;;;3.67;3.00;;;22.10;57.70;23.70;101886.00;;;;5091764;28;20205;-80
2023/09/05 02:20:37;;;;;;;2.72;2.53;;;22.10;57.60;23.70;101888.00;;;;5078316;28;20394;-79
2023/09/05 02:23:05;;;;;;;2.65;2.35;;;22.10;57.60;23.70;101889.00;;;;5090443;28;20196;-79
2023/09/05 02:25:32;;;;;;;3.03;2.55;;;22.10;57.60;23.70;101876.00;;;;5093185;28;20210;-79
2023/09/05 02:27:59;;;;;;;3.45;2.75;;;22.10;57.60;23.70;101881.00;;;;5091949;28;20201;-80
2023/09/05 02:30:26;;;;;;;5.50;2.50;;;22.10;57.60;23.70;101870.00;;;;5088100;28;20219;-80
2023/09/05 02:32:54;;;;;;;2.85;2.40;;;22.10;57.60;23.70;101884.00;;;;5082525;28;20202;-80
2023/09/05 02:35:25;;;;;;;2.92;2.50;;;22.10;57.60;23.60;101872.00;;;;5072723;28;20210;-80
2023/09/05 02:37:54;;;;;;;3.00;2.70;;;22.10;57.60;23.60;101872.00;;;;5091007;28;20194;-80
2023/09/05 02:40:21;;;;;;;3.60;2.83;;;22.10;57.70;23.70;101869.00;;;;5086215;28;20221;-80
2023/09/05 02:42:49;;;;;;;3.13;2.50;;;22.10;57.70;23.70;101870.00;;;;5086500;28;20712;-80
2023/09/05 02:45:17;;;;;;;2.88;2.45;;;22.10;57.60;23.60;101859.00;;;;5089109;28;20217;-80
2023/09/05 02:47:44;;;;;;;3.72;3.05;;;22.10;57.70;23.70;101859.00;;;;5091966;28;20641;-80
2023/09/05 02:50:11;;;;;;;3.50;2.65;;;22.10;57.60;23.70;101854.00;;;;5089936;28;20229;-80
2023/09/05 02:52:39;;;;;;;2.83;2.45;;;22.00;57.60;23.60;101853.00;;;;5091948;28;20575;-80
2023/09/05 02:55:07;;;;;;;3.05;2.63;;;22.00;57.60;23.60;101856.00;;;;5091464;28;20655;-80
2023/09/05 02:57:33;;;;;;;4.07;2.60;;;22.00;57.60;23.60;101849.00;;;;5079840;28;20206;-80
2023/09/05 03:00:01;;;;;;;3.13;2.83;;;22.00;57.60;23.60;101852.00;;;;5082163;28;20663;-80
2023/09/05 03:02:27;;;;;;;4.45;2.67;;;22.00;57.60;23.60;101845.00;;;;5093780;28;20201;-80
2023/09/05 03:04:55;;;;;;;3.17;2.72;;;22.00;57.60;23.60;101845.00;;;;5093055;28;20214;-79
2023/09/05 03:07:23;;;;;;;3.72;2.33;;;22.00;57.70;23.60;101846.00;;;;5093535;28;20194;-80
2023/09/05 03:09:52;;;;;;;2.97;2.63;;;22.00;57.50;23.60;101844.00;;;;5093114;28;20190;-79
2023/09/05 03:12:20;;;;;;;3.45;2.92;;;22.00;57.60;23.60;101846.00;;;;5089880;28;20746;-80
2023/09/05 03:14:46;;;;;;;2.58;2.25;;;22.00;57.60;23.60;101844.00;;;;5087501;28;20194;-80
2023/09/05 03:17:13;;;;;;;2.90;2.38;;;22.00;57.60;23.60;101843.00;;;;5092027;28;20202;-80
2023/09/05 03:19:41;;;;;;;2.47;2.22;;;22.00;57.70;23.60;101847.00;;;;5079249;28;20190;-80
2023/09/05 03:22:08;;;;;;;2.85;2.05;;;22.00;57.70;23.60;101839.00;;;;5091270;28;20198;-80
2023/09/05 03:24:36;;;;;;;3.70;2.45;;;21.90;57.60;23.50;101839.00;;;;5091012;28;20201;-80
2023/09/05 03:27:05;;;;;;;2.78;2.45;;;21.90;57.70;23.50;101839.00;;;;5091160;28;20201;-80
2023/09/05 03:29:32;;;;;;;2.90;2.63;;;21.90;57.70;23.50;101837.00;;;;5088148;28;20217;-79
2023/09/05 03:31:59;;;;;;;2.30;2.10;;;21.90;57.70;23.50;101835.00;;;;5087561;28;20650;-80
2023/09/05 03:34:26;;;;;;;2.88;2.03;;;21.80;57.70;23.50;101835.00;;;;5088474;28;20202;-79
2023/09/05 03:36:53;;;;;;;2.78;2.17;;;21.80;57.70;23.50;101837.00;;;;5090799;28;20214;-80
2023/09/05 03:39:20;;;;;;;2.15;1.95;;;21.80;57.80;23.40;101831.00;;;;5090504;28;20304;-80
2023/09/05 03:41:47;;;;;;;4.00;2.38;;;21.80;57.70;23.40;101829.00;;;;5087253;28;20202;-80
2023/09/05 03:44:16;;;;;;;2.60;2.28;;;21.80;57.80;23.40;101827.00;;;;5088994;28;20186;-80
2023/09/05 03:46:44;;;;;;;5.85;2.25;;;21.70;57.70;23.40;101831.00;;;;5090790;28;20194;-80
2023/09/05 03:49:12;;;;;;;3.17;2.33;;;21.70;57.80;23.30;101840.00;;;;5086061;28;20252;-80
2023/09/05 03:51:39;;;;;;;2.17;1.98;;;21.70;57.80;23.30;101831.00;;;;5090410;28;20226;-80
2023/09/05 03:54:07;;;;;;;2.63;2.40;;;21.70;57.80;23.30;101836.00;;;;5090432;28;20691;-80
2023/09/05 03:56:33;;;;;;;4.05;2.70;;;21.60;57.80;23.30;101834.00;;;;5089813;28;20194;-80
2023/09/05 03:59:00;;;;;;;3.78;2.75;;;21.60;57.90;23.20;101830.00;;;;5091460;28;20194;-80
2023/09/05 04:01:29;;;;;;;3.38;2.60;;;21.60;57.90;23.20;101824.00;;;;5074957;28;20261;-80
2023/09/05 04:03:56;;;;;;;3.13;2.60;;;21.50;57.90;23.10;101821.00;;;;5080499;28;20199;-80
2023/09/05 04:06:23;;;;;;;3.42;3.00;;;21.50;58.00;23.10;101823.00;;;;5090002;28;20569;-80
2023/09/05 04:08:49;;;;;;;3.60;2.35;;;21.50;58.00;23.10;101820.00;;;;5091200;28;20194;-80
2023/09/05 04:11:16;;;;;;;3.10;2.60;;;21.40;58.00;23.00;101814.00;;;;5088326;28;20710;-80
2023/09/05 04:13:43;;;;;;;2.85;2.25;;;21.40;58.10;23.00;101823.00;;;;5089385;28;20198;-80
2023/09/05 04:16:10;;;;;;;3.53;2.72;;;21.30;58.10;23.00;101821.00;;;;5090888;28;20691;-80
2023/09/05 04:18:39;;;;;;;2.88;2.42;;;21.30;58.10;22.90;101823.00;;;;5081440;28;20206;-80
2023/09/05 04:21:07;;;;;;;2.45;2.25;;;21.30;58.20;22.90;101823.00;;;;5084290;28;20579;-80
2023/09/05 04:23:33;;;;;;;5.75;3.28;;;21.20;58.20;22.80;101823.00;;;;5090307;28;20737;-80
2023/09/05 04:26:02;;;;;;;3.33;2.60;;;21.20;58.30;22.80;101822.00;;;;5074479;28;20206;-80
2023/09/05 04:28:31;;;;;;;3.50;2.90;;;21.10;58.30;22.80;101809.00;;;;5081091;28;20190;-80
2023/09/05 04:31:03;;;;;;;2.97;2.65;;;21.10;58.30;22.70;101812.00;;;;5089010;28;20223;-80
2023/09/05 04:33:36;;;;;;;4.13;2.28;;;21.00;58.40;22.70;101810.00;;;;5089570;28;20194;-79
2023/09/05 04:36:08;;;;;;;3.50;2.33;;;21.00;58.40;22.60;101808.00;;;;5088902;28;20206;-79
2023/09/05 04:38:35;;;;;;;4.22;2.70;;;21.00;58.50;22.70;101813.00;;;;5089551;28;20656;-80
2023/09/05 04:41:02;;;;;;;3.35;2.15;;;20.90;58.50;22.60;101820.00;;;;5088430;28;20561;-80
2023/09/05 04:43:30;;;;;;;2.83;2.33;;;21.00;58.60;22.60;101809.00;;;;5089715;28;20205;-80
2023/09/05 04:45:58;;;;;;;3.78;1.92;;;20.90;58.60;22.60;101811.00;;;;5074448;28;20214;-80
2023/09/05 04:48:25;;;;;;;2.47;2.00;;;20.90;58.70;22.60;101814.00;;;;5081783;28;20335;-80
2023/09/05 04:50:52;;;;;;;3.55;2.67;;;20.90;58.80;22.60;101824.00;;;;5080014;28;20222;-80
2023/09/05 04:53:21;;;;;;;2.97;2.33;;;20.90;58.80;22.60;101818.00;;;;5078041;28;20226;-80
2023/09/05 04:55:51;;;;;;;2.35;2.15;;;20.80;58.80;22.50;101815.00;;;;5080402;28;20198;-80
2023/09/05 04:58:18;;;;;;;2.35;2.10;;;20.80;58.90;22.50;101812.00;;;;5075029;28;20247;-80
2023/09/05 05:00:47;;;;;;;3.08;2.25;;;20.80;58.90;22.50;101812.00;;;;5087794;28;20595;-80
2023/09/05 05:03:14;;;;;;;3.53;2.45;;;20.80;58.90;22.50;101808.00;;;;5080585;28;20195;-80
2023/09/05 05:05:41;;;;;;;3.10;2.33;;;20.80;59.00;22.50;101807.00;;;;5088455;28;20588;-80
2023/09/05 05:08:08;;;;;;;2.42;2.22;;;20.80;59.00;22.50;101811.00;;;;5089636;28;20194;-80
2023/09/05 05:10:40;;;;;;;3.13;2.20;;;20.80;59.10;22.40;101818.00;;;;5088797;28;20202;-81
2023/09/05 05:13:07;;;;;;;2.72;2.40;;;20.80;59.20;22.50;101818.00;;;;5079793;28;20786;-80
2023/09/05 05:15:34;;;;;;;3.05;2.03;;;20.80;59.10;22.50;101817.00;;;;5088525;28;20199;-80
2023/09/05 05:18:01;;;;;;;3.00;2.20;;;20.80;59.10;22.50;101808.00;;;;5087790;28;20555;-81
2023/09/05 05:20:28;;;;;;;2.47;2.17;;;20.70;59.10;22.50;101814.00;;;;5074609;28;20201;-82
2023/09/05 05:22:55;;;;;;;3.70;2.50;;;20.80;59.10;22.50;101809.00;;;;5073534;28;20194;-82
2023/09/05 05:25:22;;;;;;;2.22;2.00;;;20.80;59.30;22.50;101813.00;;;;5077616;28;20194;-82
2023/09/05 05:27:51;;;;;;;2.10;1.77;;;20.80;59.30;22.50;101818.00;;;;5085931;28;20201;-80
2023/09/05 05:30:18;;;;;;;2.80;1.65;;;20.90;59.30;22.60;101818.00;;;;5087783;28;20189;-81
2023/09/05 05:32:47;;;;;;;2.42;1.77;;;20.90;59.20;22.60;101823.00;;;;5082824;28;20237;-80
2023/09/05 05:35:14;;;;;;;3.72;2.40;;;20.90;59.00;22.60;101817.00;;;;5079320;28;20199;-82
2023/09/05 05:37:41;;;;;;;2.53;1.90;;;21.00;59.00;22.70;101819.00;;;;5085672;28;20202;-81
2023/09/05 05:40:11;;;;;;;2.03;1.70;;;21.00;59.10;22.70;101819.00;;;;5079164;28;20198;-82
2023/09/05 05:42:38;;;;;;;2.58;1.58;;;21.10;59.10;22.80;101818.00;;;;5085553;28;20202;-83
2023/09/05 05:45:09;;;;;;;1.85;1.48;;;21.10;59.00;22.80;101821.00;;;;5088743;28;20283;-82
2023/09/05 05:47:36;;;;;;;2.78;1.92;;;21.20;59.00;22.90;101826.00;;;;5088591;28;20198;-80
2023/09/05 05:50:03;;;;;;;2.63;1.90;;;21.20;59.00;22.90;101828.00;;;;5080113;28;20213;-83
2023/09/05 05:52:30;;;;;;;2.42;1.95;;;21.30;58.90;23.00;101828.00;;;;5088028;28;20214;-82
2023/09/05 05:54:57;;;;;;;2.22;1.90;;;21.40;58.90;23.10;101828.00;;;;5087340;28;20205;-82
2023/09/05 05:57:24;;;;;;;2.97;2.05;;;21.50;58.80;23.10;101827.00;;;;5088580;28;20198;-83
2023/09/05 05:59:51;;;;;;;2.22;1.55;;;21.50;58.80;23.20;101824.00;;;;5087529;28;20198;-81
2023/09/05 06:02:19;;;;;;;2.17;1.92;;;21.50;58.70;23.20;101820.00;;;;5088195;28;20667;-82
2023/09/05 06:04:46;;;;;;;2.33;1.92;;;21.60;58.70;23.30;101823.00;;;;5085677;28;20222;-81
2023/09/05 06:07:13;;;;;;;3.40;1.80;;;21.70;58.60;23.40;101811.00;;;;5086158;28;20202;-78
2023/09/05 06:09:40;;;;;;;2.30;1.50;;;21.80;58.60;23.40;101814.00;;;;5087818;28;20214;-79
2023/09/05 06:12:08;;;;;;;3.35;1.92;;;21.80;58.60;23.50;101813.00;;;;5088414;28;20233;-79
2023/09/05 06:14:35;;;;;;;2.42;1.90;;;21.90;58.60;23.60;101817.00;;;;5087811;28;20197;-79
2023/09/05 06:17:03;;;;;;;3.03;2.33;;;21.90;58.50;23.70;101814.00;;;;5087489;28;20186;-80
2023/09/05 06:19:31;;;;;;;3.05;2.03;;;22.00;58.40;23.70;101822.00;;;;5085958;28;20224;-80
2023/09/05 06:21:58;;;;;;;2.10;1.70;;;22.10;58.30;23.80;101824.00;;;;5085388;28;20198;-80
2023/09/05 06:24:25;;;;;;;5.70;2.10;;;22.20;58.30;23.90;101820.00;;;;5079653;28;20990;-79
2023/09/05 06:26:52;;;;;;;3.22;1.80;;;22.20;58.20;23.90;101822.00;;;;5075905;28;20213;-79
2023/09/05 06:29:19;;;;;;;2.80;2.10;;;22.30;58.10;24.00;101822.00;;;;5083737;28;20335;-79
2023/09/05 06:31:48;;;;;;;2.80;1.50;;;22.40;58.10;24.10;101820.00;;;;5083689;28;20576;-81
2023/09/05 06:34:16;;;;;;;3.60;1.92;;;22.50;58.00;24.10;101823.00;;;;5086820;28;20199;-80
2023/09/05 06:36:44;;;;;;;2.50;1.95;;;22.50;57.90;24.20;101815.00;;;;5084442;28;20213;-80
2023/09/05 06:39:12;;;;;;;2.33;2.00;;;22.60;57.90;24.20;101822.00;;;;5084138;28;20565;-80
2023/09/05 06:41:41;;;;;;;3.22;1.80;;;22.60;57.70;24.30;101820.00;;;;5086138;28;20205;-81
2023/09/05 06:44:08;;;;;;;1.88;1.58;;;22.70;57.70;24.40;101820.00;;;;5075814;28;20619;-80
2023/09/05 06:46:35;;;;;;;2.97;2.10;;;22.80;57.60;24.50;101823.00;;;;5069604;28;20222;-80
2023/09/05 06:49:03;;;;;;;2.22;2.00;;;22.80;57.60;24.50;101829.00;;;;5072455;28;20665;-79
2023/09/05 06:51:30;;;;;;;2.85;1.60;;;22.90;57.50;24.60;101820.00;;;;5087249;28;20695;-80
2023/09/05 06:53:59;;;;;;;2.08;1.48;;;23.00;57.50;24.70;101822.00;;;;5086327;28;20233;-80
2023/09/05 06:56:26;;;;;;;3.45;1.65;;;23.00;57.40;24.70;101820.00;;;;5076241;28;20209;-80
2023/09/05 06:58:53;;;;;;;1.88;1.60;;;23.10;57.50;24.80;101824.00;;;;5084444;28;20199;-80
2023/09/05 07:01:20;;;;;;;2.63;2.08;;;23.20;57.40;24.90;101829.00;;;;5084066;28;20221;-80
2023/09/05 07:03:47;;;;;;;2.25;1.70;;;23.30;57.30;25.00;101822.00;;;;5088120;28;20206;-80
2023/09/05 07:06:18;;;;;;;2.75;1.83;;;23.30;57.30;25.00;101822.00;;;;5088423;28;20288;-79
2023/09/05 07:08:46;;;;;;;2.22;1.88;;;23.40;57.30;25.10;101823.00;;;;5090892;28;20233;-80
2023/09/05 07:11:14;;;;;;;3.65;1.88;;;23.50;57.10;25.10;101821.00;;;;5090915;28;20233;-79
2023/09/05 07:13:41;;;;;;;2.55;1.58;;;23.60;57.00;25.20;101824.00;;;;5090304;28;20213;-79
2023/09/05 07:16:08;;;;;;;2.70;1.83;;;23.60;56.80;25.30;101824.00;;;;5090169;28;20226;-79
2023/09/05 07:18:35;;;;;;;2.50;1.40;;;23.70;56.80;25.30;101817.00;;;;5090191;28;20540;-79
2023/09/05 07:21:02;;;;;;;4.28;1.95;;;23.70;56.70;25.40;101826.00;;;;5091311;28;20201;-79
2023/09/05 07:23:29;;;;;;;3.13;1.40;;;23.80;56.60;25.50;101823.00;;;;5090968;28;20571;-79
2023/09/05 07:25:56;;;;;;;2.38;1.70;;;23.90;57.10;25.50;101823.00;;;;5090228;28;20199;-79
2023/09/05 07:28:24;;;;;;;2.08;1.52;;;23.90;56.50;25.60;101826.00;;;;5090553;28;20194;-79
2023/09/05 07:30:51;;;;;;;3.05;1.83;;;24.00;56.40;25.70;101830.00;;;;5087915;28;20214;-79
2023/09/05 07:33:18;;;;;;;1.67;1.48;;;24.10;56.40;25.70;101827.00;;;;5091104;28;20687;-79
2023/09/05 07:35:45;;;;;;;2.00;1.80;;;24.20;56.20;25.80;101827.00;;;;5091077;28;20198;-80
2023/09/05 07:38:14;;;;;;;1.80;1.40;;;24.20;56.10;25.80;101830.00;;;;5088866;28;20206;-79
2023/09/05 07:40:41;;;;;;;2.17;1.70;;;24.30;56.00;25.90;101824.00;;;;5090284;28;20249;-79
2023/09/05 07:43:08;;;;;;;3.05;1.80;;;24.30;55.90;26.00;101832.00;;;;5090951;28;20205;-79
2023/09/05 07:45:36;;;;;;;2.53;1.70;;;24.40;55.80;26.00;101826.00;;;;5090175;28;20211;-79
2023/09/05 07:48:07;;;;;;;2.25;1.60;;;24.50;55.80;26.10;101824.00;;;;5091176;28;20210;-79
2023/09/05 07:50:35;;;;;;;4.35;2.05;;;24.60;55.80;26.20;101823.00;;;;5071114;28;20196;-79
2023/09/05 07:53:02;;;;;;;2.90;1.58;;;24.60;55.70;26.30;101822.00;;;;5070087;28;20231;-79
2023/09/05 07:55:29;;;;;;;5.75;2.00;;;24.70;55.50;26.30;101824.00;;;;5075648;28;20207;-80
2023/09/05 07:57:56;;;;;;;2.13;1.83;;;24.80;55.50;26.40;101829.00;;;;5083980;28;20209;-79
2023/09/05 08:00:27;;;;;;;3.55;1.77;;;24.90;55.40;26.50;101833.00;;;;5107884;28;21029;-79
2023/09/05 08:02:55;;;;;;;3.47;1.70;;;24.90;55.40;26.50;101823.00;;;;5091774;28;20209;-79
2023/09/05 08:05:22;;;;;;;1.80;1.52;;;25.00;55.20;26.60;101828.00;;;;5070288;28;20211;-79
2023/09/05 08:07:49;;;;;;;2.58;1.55;;;25.00;55.00;26.70;101837.00;;;;5070438;28;20257;-79
2023/09/05 08:10:16;;;;;;;3.15;1.63;;;25.10;55.10;26.70;101833.00;;;;5087633;28;20243;-80
2023/09/05 08:12:43;;;;;;;2.63;1.98;;;25.20;55.00;26.80;101838.00;;;;5090101;28;20229;-80
2023/09/05 08:15:11;;;;;;;2.30;1.85;;;25.30;55.10;26.90;101837.00;;;;5090239;28;20198;-80
2023/09/05 08:17:39;;;;;;;2.72;1.90;;;25.30;55.00;27.00;101841.00;;;;5088156;28;20198;-80
2023/09/05 08:20:12;;;;;;;3.88;1.75;;;25.40;54.90;27.00;101843.00;;;;5089232;28;20313;-79
2023/09/05 08:22:39;;;;;;;1.60;1.23;;;25.50;54.90;27.10;101849.00;;;;5088540;28;20202;-80
2023/09/05 08:25:09;;;;;;;1.92;1.65;;;25.50;54.90;27.20;101839.00;;;;5075297;28;20253;-79
2023/09/05 08:27:36;;;;;;;1.63;1.35;;;25.70;54.90;27.30;101838.00;;;;5089437;28;20201;-79
2023/09/05 08:30:04;;;;;;;2.33;1.60;;;25.70;54.90;27.40;101841.00;;;;5089646;28;20209;-79
2023/09/05 08:32:31;;;;;;;2.13;1.70;;;25.80;54.70;27.40;101842.00;;;;5077483;28;20218;-79
2023/09/05 08:34:58;;;;;;;1.63;1.42;;;25.80;54.60;27.50;101841.00;;;;5089903;28;20209;-79
2023/09/05 08:37:26;;;;;;;1.85;1.63;;;26.00;54.60;27.60;101842.00;;;;5090210;28;21126;-79
2023/09/05 08:39:53;;;;;;;2.65;1.77;;;26.10;54.60;27.70;101834.00;;;;5089308;28;20194;-79
2023/09/05 08:42:21;;;;;;;3.42;1.90;;;26.10;54.40;27.80;101831.00;;;;5090208;28;20709;-80
2023/09/05 08:44:51;;;;;;;2.70;2.08;;;26.20;54.50;27.90;101834.00;;;;5089873;28;20277;-80
2023/09/05 08:47:18;;;;;;;3.20;1.83;;;26.30;54.50;28.00;101832.00;;;;5088675;28;20201;-79
2023/09/05 08:49:45;;;;;;;2.80;1.73;;;26.40;54.50;28.10;101834.00;;;;5088482;28;20566;-80
2023/09/05 08:52:16;;;;;;;2.05;1.85;;;26.50;54.60;28.10;101828.00;;;;5078686;28;20226;-79
2023/09/05 08:54:45;;;;;;;2.85;1.90;;;26.50;54.40;28.20;101828.00;;;;5089582;28;20222;-77
2023/09/05 08:57:17;;;;;;;2.70;1.98;;;26.70;54.40;28.30;101827.00;;;;5089207;28;20198;-76
2023/09/05 08:59:44;;;;;;;1.80;1.50;;;26.80;54.90;28.40;101828.00;;;;5089463;28;20202;-77
2023/09/05 09:02:16;;;;;;;3.13;1.55;;;26.90;54.30;28.50;101830.00;;;;5088129;28;20561;-76
2023/09/05 09:04:50;;;;;;;1.85;1.60;;;27.00;54.30;28.60;101835.00;;;;5088974;28;20214;-77
2023/09/05 09:07:18;;;;;;;3.03;1.45;;;27.10;53.80;28.70;101824.00;;;;5084131;28;20202;-76
2023/09/05 09:09:46;;;;;;;5.18;1.73;;;27.20;53.90;28.80;101824.00;;;;5080289;28;20202;-77
2023/09/05 09:12:13;;;;;;;4.63;1.90;;;27.30;53.90;28.90;101824.00;;;;5081935;28;20219;-76
2023/09/05 09:14:40;;;;;;;2.33;1.80;;;27.30;53.90;29.00;101826.00;;;;5068922;28;20206;-77
2023/09/05 09:17:07;;;;;;;2.38;1.65;;;27.40;53.80;29.10;101822.00;;;;5068811;28;20660;-77
2023/09/05 09:19:34;;;;;;;2.00;1.63;;;27.60;53.80;29.20;101816.00;;;;5088335;28;20206;-77
2023/09/05 09:22:03;;;;;;;6.88;2.20;;;27.60;53.70;29.20;101823.00;;;;5088203;28;20698;-77
2023/09/05 09:24:34;;;;;;;3.58;1.67;;;27.70;53.70;29.30;101823.00;;;;5089109;28;20652;-80
2023/09/05 09:27:06;;;;;;;3.30;2.00;;;27.90;53.50;29.40;101823.00;;;;5088685;28;20198;-79
2023/09/05 09:29:34;;;;;;;2.35;1.50;;;28.00;53.60;29.60;101816.00;;;;5089266;28;20197;-80
2023/09/05 09:32:06;;;;;;;1.67;1.33;;;28.10;53.60;29.70;101827.00;;;;5077478;28;20554;-80
2023/09/05 09:34:35;;;;;;;1.63;1.52;;;28.20;53.40;29.80;101830.00;;;;5086433;28;20201;-80
2023/09/05 09:37:02;;;;;;;2.47;1.50;;;28.30;53.20;29.90;101824.00;;;;5088842;28;20206;-77
2023/09/05 09:39:32;;;;;;;2.00;1.52;;;28.40;53.20;30.00;101834.00;;;;5087081;28;20194;-77
2023/09/05 09:42:00;;;;;;;1.90;1.55;;;28.50;53.20;30.10;101831.00;;;;5088500;28;20237;-77
2023/09/05 09:44:31;;;;;;;2.15;1.48;;;28.70;53.30;30.20;101839.00;;;;5089075;28;20198;-78
2023/09/05 09:47:01;;;;;;;3.20;2.03;;;28.80;52.90;30.40;101839.00;;;;5089129;28;20702;-77
2023/09/05 09:49:30;;;;;;;3.80;1.50;;;28.90;52.70;30.50;101845.00;;;;5087754;28;20773;-77
2023/09/05 09:52:03;;;;;;;2.20;1.58;;;29.00;52.80;30.50;101833.00;;;;5088622;28;20201;-78
2023/09/05 09:54:37;;;;;;;3.97;1.80;;;29.20;53.00;30.70;101835.00;;;;5088697;28;20225;-77
2023/09/05 09:57:06;;;;;;;4.32;1.80;;;29.30;52.70;30.80;101849.00;;;;5088490;28;20197;-78
2023/09/05 09:59:37;;;;;;;4.10;1.42;;;29.40;52.20;30.90;101846.00;;;;5088751;28;20204;-78
2023/09/05 10:02:07;;;;;;;2.20;2.00;;;29.50;51.70;31.00;101843.00;;;;5088222;28;20212;-77
2023/09/05 10:04:35;;;;;;;1.60;1.50;;;29.60;51.50;31.00;101835.00;;;;5088717;28;20213;-78
2023/09/05 10:07:06;;;;;;;1.52;1.42;;;29.70;51.20;31.10;101843.00;;;;5088404;28;20201;-78
2023/09/05 10:09:36;;;;;;;3.03;1.98;;;29.80;50.90;31.20;101844.00;;;;5088453;28;20236;-78
2023/09/05 10:12:05;;;;;;;2.67;1.80;;;29.90;50.90;31.20;101838.00;;;;5087710;28;20850;-77
2023/09/05 10:14:37;;;;;;;3.45;2.00;;;29.90;50.80;31.30;101842.00;;;;5088114;28;20186;-78
2023/09/05 10:17:06;;;;;;;4.30;2.03;;;30.00;50.50;31.40;101833.00;;;;5088127;28;20194;-78
2023/09/05 10:19:34;;;;;;;2.53;1.70;;;30.10;50.40;31.40;101834.00;;;;5087903;28;20218;-78
2023/09/05 10:22:02;;;;;;;3.08;1.95;;;30.10;50.20;31.50;101823.00;;;;5087070;28;20222;-77
2023/09/05 10:24:33;;;;;;;2.63;1.38;;;30.20;50.30;31.60;101828.00;;;;5087706;28;20217;-77
2023/09/05 10:27:00;;;;;;;2.05;1.48;;;30.30;50.20;31.70;101826.00;;;;5087611;28;20563;-77
2023/09/05 10:29:42;;;;;;;1.85;1.65;;;30.40;50.20;31.70;101828.00;;;;5088134;28;20194;-77
2023/09/05 10:32:10;;;;;;;1.77;1.52;;;30.50;49.30;31.80;101831.00;;;;5075492;28;20229;-78
2023/09/05 10:35:02;;;;;;;1.73;1.45;;;30.60;50.00;31.80;101833.00;;;;5079318;28;20209;-78
2023/09/05 10:37:51;;;;;;;2.70;1.80;;;30.60;49.10;31.90;101832.00;;;;5085764;28;20301;-78
2023/09/05 10:40:25;;;;;;;1.30;1.08;;;30.70;48.80;32.10;101837.00;;;;5088704;28;20573;-77
2023/09/05 10:42:56;;;;;;;1.40;1.30;;;30.80;49.60;32.10;101833.00;;;;5090675;28;20276;-77
2023/09/05 10:45:35;;;;;;;2.03;1.58;;;30.90;49.10;32.10;101829.00;;;;5090980;28;20202;-78
2023/09/05 10:48:08;;;;;;;3.67;1.60;;;31.00;48.80;32.30;101826.00;;;;5080924;28;20197;-78
2023/09/05 10:51:11;;;;;;;1.40;1.30;;;31.10;49.40;32.30;101817.00;;;;5091563;28;20651;-77
2023/09/05 10:53:40;;;;;;;1.38;1.27;;;31.10;48.70;32.50;101814.00;;;;5088661;28;20237;-78